createdAt,value
2023-01-07T00:01:21.730Z,100.00
2023-01-07T00:03:49.975Z,100.00
2023-01-07T00:06:29.520Z,100.00
2023-01-07T00:08:57.693Z,100.00
2023-01-07T00:11:36.360Z,100.00
2023-01-07T00:14:05.334Z,100.00
2023-01-07T00:16:33.464Z,100.00
2023-01-07T00:19:04.384Z,100.00
2023-01-07T00:21:31.624Z,100.00
2023-01-07T00:24:01.009Z,100.00
2023-01-07T00:26:32.614Z,100.00
2023-01-07T00:29:00.235Z,100.00
2023-01-07T00:31:32.738Z,100.00
2023-01-07T00:34:00.049Z,100.00
2023-01-07T00:36:29.259Z,100.00
2023-01-07T00:39:13.006Z,100.00
2023-01-07T00:41:39.897Z,100.00
2023-01-07T00:44:08.195Z,100.00
2023-01-07T00:46:35.327Z,100.00
2023-01-07T00:49:02.226Z,100.00
2023-01-07T00:51:29.149Z,100.00
2023-01-07T00:53:56.002Z,100.00
2023-01-07T00:56:22.848Z,100.00
2023-01-07T00:58:49.703Z,100.00
2023-01-07T01:01:16.617Z,100.00
2023-01-07T01:03:43.625Z,100.00
2023-01-07T01:06:15.887Z,100.00
2023-01-07T01:08:44.976Z,100.00
2023-01-07T01:11:13.979Z,100.00
2023-01-07T01:13:41.727Z,100.00
2023-01-07T01:16:11.644Z,100.00
2023-01-07T01:18:38.999Z,100.00
2023-01-07T01:21:07.568Z,100.00
2023-01-07T01:23:35.033Z,100.00
2023-01-07T01:26:13.663Z,100.00
2023-01-07T01:28:40.699Z,100.00
2023-01-07T01:31:09.149Z,100.00
2023-01-07T01:33:36.180Z,100.00
2023-01-07T01:36:05.703Z,100.00
2023-01-07T01:38:32.624Z,100.00
2023-01-07T01:40:59.686Z,100.00
2023-01-07T01:43:31.458Z,100.00
2023-01-07T01:46:02.383Z,100.00
2023-01-07T01:48:34.260Z,100.00
2023-01-07T01:51:03.250Z,100.00
2023-01-07T01:53:34.232Z,100.00
2023-01-07T01:56:11.812Z,100.00
2023-01-07T01:58:57.095Z,100.00
2023-01-07T02:01:23.969Z,100.00
2023-01-07T02:03:52.450Z,100.00
2023-01-07T02:06:24.645Z,100.00
2023-01-07T02:08:51.679Z,100.00
2023-01-07T02:11:30.575Z,100.00
2023-01-07T02:14:04.377Z,100.00
2023-01-07T02:17:25.074Z,100.00
2023-01-07T02:20:28.968Z,100.00
2023-01-07T02:23:09.942Z,100.00
2023-01-07T02:26:01.491Z,100.00
2023-01-07T02:28:43.431Z,100.00
2023-01-07T02:31:22.497Z,100.00
2023-01-07T02:33:49.230Z,100.00
2023-01-07T02:36:37.533Z,100.00
2023-01-07T02:39:19.798Z,100.00
2023-01-07T02:42:04.171Z,100.00
2023-01-07T02:44:57.655Z,100.00
2023-01-07T02:47:32.685Z,100.00
2023-01-07T02:49:59.499Z,100.00
2023-01-07T02:52:31.193Z,100.00
2023-01-07T02:55:04.352Z,100.00
2023-01-07T02:58:05.305Z,100.00
2023-01-07T03:00:54.067Z,100.00
2023-01-07T03:03:48.089Z,100.00
2023-01-07T03:06:23.963Z,100.00
2023-01-07T03:09:37.894Z,100.00
2023-01-07T03:12:45.065Z,100.00
2023-01-07T03:15:19.859Z,100.00
2023-01-07T03:17:59.677Z,100.00
2023-01-07T03:20:27.820Z,100.00
2023-01-07T03:22:57.692Z,100.00
2023-01-07T03:25:28.356Z,100.00
2023-01-07T03:27:57.218Z,100.00
2023-01-07T03:30:25.146Z,100.00
2023-01-07T03:33:02.620Z,100.00
2023-01-07T03:35:32.201Z,100.00
2023-01-07T03:38:02.013Z,100.00
2023-01-07T03:40:29.386Z,100.00
2023-01-07T03:42:56.176Z,100.00
2023-01-07T03:45:24.580Z,100.00
2023-01-07T03:47:55.845Z,100.00
2023-01-07T03:50:22.986Z,100.00
2023-01-07T03:52:50.933Z,100.00
2023-01-07T03:55:18.301Z,100.00
2023-01-07T03:57:45.072Z,100.00
2023-01-07T04:00:13.861Z,100.00
2023-01-07T04:02:41.894Z,100.00
2023-01-07T04:05:09.623Z,100.00
2023-01-07T04:07:36.558Z,100.00
2023-01-07T04:10:04.907Z,100.00
2023-01-07T04:12:31.766Z,100.00
2023-01-07T04:14:59.435Z,100.00
2023-01-07T04:17:26.248Z,100.00
2023-01-07T04:19:53.085Z,100.00
2023-01-07T04:22:20.534Z,100.00
2023-01-07T04:24:47.307Z,100.00
2023-01-07T04:27:14.031Z,100.00
2023-01-07T04:29:40.843Z,100.00
2023-01-07T04:32:07.535Z,100.00
2023-01-07T04:34:34.271Z,100.00
2023-01-07T04:37:01.129Z,100.00
2023-01-07T04:39:27.944Z,100.00
2023-01-07T04:41:54.782Z,100.00
2023-01-07T04:44:21.705Z,100.00
2023-01-07T04:46:48.589Z,100.00
2023-01-07T04:49:15.324Z,100.00
2023-01-07T04:51:42.321Z,100.00
2023-01-07T04:54:09.032Z,100.00
2023-01-07T04:56:35.754Z,100.00
2023-01-07T04:59:02.581Z,100.00
2023-01-07T05:01:33.171Z,100.00
2023-01-07T05:04:00.273Z,99.55
2023-01-07T05:06:27.027Z,95.61
2023-01-07T05:08:54.058Z,95.97
2023-01-07T05:11:21.877Z,96.75
2023-01-07T05:13:49.747Z,96.75
2023-01-07T05:16:17.845Z,95.85
2023-01-07T05:18:45.029Z,96.09
2023-01-07T05:21:12.355Z,94.13
2023-01-07T05:23:39.192Z,94.12
2023-01-07T05:26:06.366Z,94.04
2023-01-07T05:28:33.390Z,93.67
2023-01-07T05:31:00.540Z,92.59
2023-01-07T05:33:27.575Z,92.92
2023-01-07T05:35:54.458Z,97.36
2023-01-07T05:38:21.345Z,98.56
2023-01-07T05:40:49.930Z,100.00
2023-01-07T05:43:17.090Z,100.00
2023-01-07T05:45:45.604Z,100.00
2023-01-07T05:48:13.333Z,100.00
2023-01-07T05:50:40.108Z,100.00
2023-01-07T05:53:07.461Z,100.00
2023-01-07T05:55:36.970Z,100.00
2023-01-07T05:58:03.936Z,100.00
2023-01-07T06:00:30.941Z,100.00
2023-01-07T06:02:57.738Z,100.00
2023-01-07T06:05:24.470Z,100.00
2023-01-07T06:07:51.598Z,100.00
2023-01-07T06:10:18.382Z,100.00
2023-01-07T06:12:45.184Z,100.00
2023-01-07T06:15:11.931Z,100.00
2023-01-07T06:17:38.607Z,100.00
2023-01-07T06:20:06.145Z,100.00
2023-01-07T06:22:32.833Z,100.00
2023-01-07T06:24:59.692Z,100.00
2023-01-07T06:27:26.437Z,100.00
2023-01-07T06:29:53.127Z,100.00
2023-01-07T06:32:19.864Z,100.00
2023-01-07T06:34:46.716Z,100.00
2023-01-07T06:37:14.852Z,100.00
2023-01-07T06:39:41.625Z,100.00
2023-01-07T06:42:08.307Z,100.00
2023-01-07T06:44:34.967Z,100.00
2023-01-07T06:47:01.987Z,100.00
2023-01-07T06:49:28.877Z,100.00
2023-01-07T06:51:55.557Z,100.00
2023-01-07T06:54:22.239Z,100.00
2023-01-07T06:56:48.922Z,100.00
2023-01-07T06:59:15.613Z,100.00
2023-01-07T07:01:43.952Z,100.00
2023-01-07T07:04:11.791Z,100.00
2023-01-07T07:06:38.498Z,100.00
2023-01-07T07:09:05.239Z,100.00
2023-01-07T07:11:32.019Z,99.87
2023-01-07T07:13:59.835Z,98.08
2023-01-07T07:16:26.703Z,96.11
2023-01-07T07:18:53.742Z,96.85
2023-01-07T07:21:20.629Z,95.30
2023-01-07T07:23:47.673Z,94.61
2023-01-07T07:26:14.386Z,98.14
2023-01-07T07:28:44.123Z,100.00
2023-01-07T07:31:11.081Z,99.31
2023-01-07T07:33:37.875Z,100.00
2023-01-07T07:36:05.122Z,95.41
2023-01-07T07:38:31.962Z,96.04
2023-01-07T07:40:58.748Z,97.44
2023-01-07T07:43:25.513Z,98.41
2023-01-07T07:45:52.245Z,98.61
2023-01-07T07:48:19.044Z,96.99
2023-01-07T07:50:51.057Z,95.37
2023-01-07T07:53:18.572Z,94.17
2023-01-07T07:55:46.323Z,94.88
2023-01-07T07:58:13.759Z,95.55
2023-01-07T08:00:40.603Z,93.84
2023-01-07T08:03:07.658Z,93.14
2023-01-07T08:05:34.438Z,93.99
2023-01-07T08:08:01.538Z,92.70
2023-01-07T08:10:29.174Z,91.38
2023-01-07T08:12:56.108Z,90.92
2023-01-07T08:15:23.002Z,90.34
2023-01-07T08:18:00.354Z,90.20
2023-01-07T08:20:28.404Z,88.92
2023-01-07T08:22:57.707Z,88.18
2023-01-07T08:25:24.552Z,87.88
2023-01-07T08:27:51.460Z,87.92
2023-01-07T08:30:18.556Z,87.88
2023-01-07T08:32:45.410Z,87.93
2023-01-07T08:35:12.814Z,87.86
2023-01-07T08:37:39.893Z,87.64
2023-01-07T08:40:07.425Z,88.21
2023-01-07T08:42:34.267Z,87.78
2023-01-07T08:45:01.150Z,87.60
2023-01-07T08:47:28.597Z,87.95
2023-01-07T08:49:55.666Z,87.43
2023-01-07T08:52:26.450Z,87.92
2023-01-07T08:54:53.273Z,87.60
2023-01-07T08:57:20.260Z,86.95
2023-01-07T08:59:47.020Z,86.64
2023-01-07T09:02:19.069Z,86.56
2023-01-07T09:04:46.043Z,87.10
2023-01-07T09:07:12.997Z,86.46
2023-01-07T09:09:40.235Z,86.80
2023-01-07T09:12:10.648Z,86.89
2023-01-07T09:14:37.962Z,86.69
2023-01-07T09:17:04.865Z,86.61
2023-01-07T09:19:31.743Z,87.00
2023-01-07T09:21:58.481Z,86.83
2023-01-07T09:24:25.262Z,87.03
2023-01-07T09:26:52.565Z,86.92
2023-01-07T09:29:19.483Z,87.07
2023-01-07T09:31:46.316Z,86.85
2023-01-07T09:34:13.564Z,87.17
2023-01-07T09:36:40.297Z,87.16
2023-01-07T09:39:07.187Z,87.35
2023-01-07T09:42:04.572Z,87.52
2023-01-07T09:44:44.882Z,86.85
2023-01-07T09:47:14.748Z,86.10
2023-01-07T09:49:44.106Z,86.62
2023-01-07T09:52:19.388Z,87.03
2023-01-07T09:54:48.462Z,86.09
2023-01-07T09:57:17.817Z,86.34
2023-01-07T09:59:45.793Z,86.28
2023-01-07T10:02:49.206Z,85.95
2023-01-07T10:05:43.696Z,85.81
2023-01-07T10:08:32.208Z,86.03
2023-01-07T10:11:12.440Z,86.10
2023-01-07T10:13:59.554Z,85.74
2023-01-07T10:17:00.670Z,85.75
2023-01-07T10:19:39.920Z,85.45
2023-01-07T10:22:30.804Z,84.82
2023-01-07T10:25:04.490Z,84.95
2023-01-07T10:27:40.271Z,84.63
2023-01-07T10:30:15.209Z,83.60
2023-01-07T10:32:42.031Z,82.80
2023-01-07T10:35:17.424Z,82.69
2023-01-07T10:37:44.402Z,81.98
2023-01-07T10:40:33.135Z,81.62
2023-01-07T10:43:21.371Z,81.99
2023-01-07T10:45:58.305Z,81.08
2023-01-07T10:48:46.878Z,81.12
2023-01-07T10:51:44.956Z,80.43
2023-01-07T10:54:17.567Z,80.05
2023-01-07T10:56:58.001Z,79.44
2023-01-07T10:59:25.574Z,78.16
2023-01-07T11:01:54.838Z,76.35
2023-01-07T11:04:22.308Z,76.38
2023-01-07T11:07:04.195Z,77.38
2023-01-07T11:09:35.334Z,77.90
2023-01-07T11:12:14.921Z,77.44
2023-01-07T11:14:43.186Z,78.16
2023-01-07T11:17:32.398Z,78.47
2023-01-07T11:19:59.321Z,79.47
2023-01-07T11:22:26.073Z,78.66
2023-01-07T11:24:57.856Z,78.41
2023-01-07T11:27:27.903Z,78.17
2023-01-07T11:30:02.431Z,78.64
2023-01-07T11:32:35.518Z,78.75
2023-01-07T11:35:06.976Z,78.28
2023-01-07T11:37:44.692Z,78.31
2023-01-07T11:40:14.656Z,78.68
2023-01-07T11:42:48.803Z,78.42
2023-01-07T11:45:20.945Z,77.51
2023-01-07T11:48:29.220Z,77.37
2023-01-07T11:51:12.845Z,76.73
2023-01-07T11:53:59.967Z,76.55
2023-01-07T11:56:33.051Z,76.17
2023-01-07T11:59:12.151Z,76.79
2023-01-07T12:01:49.170Z,76.37
2023-01-07T12:04:32.279Z,76.64
2023-01-07T12:07:04.108Z,76.08
2023-01-07T12:09:37.043Z,75.60
2023-01-07T12:12:34.990Z,76.90
2023-01-07T12:15:06.361Z,77.85
2023-01-07T12:17:35.225Z,74.90
2023-01-07T12:20:14.399Z,75.71
2023-01-07T12:23:15.425Z,76.92
2023-01-07T12:26:08.814Z,76.35
2023-01-07T12:28:47.825Z,75.54
2023-01-07T12:31:30.071Z,76.33
2023-01-07T12:33:56.798Z,75.99
2023-01-07T12:36:47.531Z,73.81
2023-01-07T12:39:23.641Z,73.76
2023-01-07T12:42:03.649Z,73.67
2023-01-07T12:44:31.185Z,75.11
2023-01-07T12:47:31.618Z,74.26
2023-01-07T12:50:24.557Z,72.47
2023-01-07T12:52:57.539Z,73.66
2023-01-07T12:55:31.713Z,73.77
2023-01-07T12:57:58.474Z,73.72
2023-01-07T13:00:28.817Z,74.03
2023-01-07T13:03:01.718Z,74.30
2023-01-07T13:05:43.971Z,75.96
2023-01-07T13:08:40.894Z,74.99
2023-01-07T13:11:53.116Z,74.28
2023-01-07T13:14:25.268Z,76.98
2023-01-07T13:16:52.075Z,75.09
2023-01-07T13:19:21.664Z,75.32
2023-01-07T13:21:50.046Z,75.96
2023-01-07T13:24:56.357Z,75.77
2023-01-07T13:28:00.275Z,76.99
2023-01-07T13:30:46.347Z,77.91
2023-01-07T13:33:46.867Z,76.29
2023-01-07T13:36:27.768Z,77.11
2023-01-07T13:39:21.372Z,76.92
2023-01-07T13:42:21.900Z,77.28
2023-01-07T13:45:02.586Z,78.44
2023-01-07T13:47:41.543Z,78.03
2023-01-07T13:50:37.379Z,77.74
2023-01-07T13:53:12.318Z,78.60
2023-01-07T13:55:44.752Z,79.36
2023-01-07T13:58:30.479Z,78.84
2023-01-07T14:01:11.689Z,78.64
2023-01-07T14:04:18.019Z,79.78
2023-01-07T14:06:48.291Z,80.37
2023-01-07T14:09:24.859Z,79.76
2023-01-07T14:12:44.095Z,79.46
2023-01-07T14:15:26.814Z,79.23
2023-01-07T14:18:13.164Z,79.17
2023-01-07T14:20:51.933Z,78.53
2023-01-07T14:23:30.184Z,80.19
2023-01-07T14:26:37.623Z,79.71
2023-01-07T14:29:45.496Z,81.37
2023-01-07T14:32:32.016Z,80.32
2023-01-07T14:35:08.033Z,80.56
2023-01-07T14:37:46.821Z,80.88
2023-01-07T14:40:54.509Z,81.50
2023-01-07T14:43:46.181Z,82.36
2023-01-07T14:46:28.107Z,83.10
2023-01-07T14:49:24.769Z,83.65
2023-01-07T14:52:13.473Z,84.28
2023-01-07T14:55:08.531Z,84.50
2023-01-07T14:57:56.057Z,85.52
2023-01-07T15:00:38.730Z,86.04
2023-01-07T15:03:16.399Z,86.19
2023-01-07T15:06:28.319Z,87.43
2023-01-07T15:09:37.928Z,88.13
2023-01-07T15:12:30.438Z,88.55
2023-01-07T15:15:32.934Z,89.62
2023-01-07T15:17:59.729Z,90.31
2023-01-07T15:20:38.720Z,90.58
2023-01-07T15:23:19.076Z,90.65
2023-01-07T15:26:28.960Z,90.79
2023-01-07T15:29:04.833Z,91.35
2023-01-07T15:31:59.100Z,91.26
2023-01-07T15:34:30.893Z,91.15
2023-01-07T15:36:58.830Z,91.80
2023-01-07T15:39:33.582Z,91.75
2023-01-07T15:42:01.160Z,92.43
2023-01-07T15:44:40.722Z,92.91
2023-01-07T15:47:41.419Z,93.69
2023-01-07T15:50:30.938Z,94.31
2023-01-07T15:53:10.045Z,94.93
2023-01-07T15:55:40.369Z,96.48
2023-01-07T15:58:13.331Z,98.15
2023-01-07T16:00:40.822Z,98.88
2023-01-07T16:03:08.303Z,100.00
2023-01-07T16:05:38.336Z,100.00
2023-01-07T16:08:05.288Z,100.00
2023-01-07T16:10:35.427Z,100.00
2023-01-07T16:13:05.328Z,100.00
2023-01-07T16:15:38.436Z,100.00
2023-01-07T16:18:18.989Z,100.00
2023-01-07T16:21:02.469Z,100.00
2023-01-07T16:23:32.807Z,100.00
2023-01-07T16:26:18.530Z,99.21
2023-01-07T16:28:59.494Z,97.75
2023-01-07T16:31:31.180Z,96.98
2023-01-07T16:34:00.083Z,94.95
2023-01-07T16:36:36.343Z,94.41
2023-01-07T16:39:15.868Z,94.52
2023-01-07T16:41:43.348Z,93.97
2023-01-07T16:44:49.494Z,93.54
2023-01-07T16:47:22.225Z,93.47
2023-01-07T16:49:55.248Z,93.66
2023-01-07T16:52:31.819Z,93.42
2023-01-07T16:54:59.274Z,92.84
2023-01-07T16:57:33.826Z,92.84
2023-01-07T17:00:03.931Z,92.69
2023-01-07T17:02:43.117Z,93.04
2023-01-07T17:05:17.002Z,93.16
2023-01-07T17:08:36.731Z,93.11
2023-01-07T17:11:09.333Z,93.26
2023-01-07T17:13:39.162Z,93.50
2023-01-07T17:16:16.732Z,93.64
2023-01-07T17:18:43.577Z,93.56
2023-01-07T17:21:30.292Z,93.19
2023-01-07T17:23:58.105Z,93.06
2023-01-07T17:26:27.472Z,93.42
2023-01-07T17:28:57.260Z,93.45
2023-01-07T17:31:24.677Z,93.76
2023-01-07T17:33:53.411Z,94.22
2023-01-07T17:36:23.089Z,94.30
2023-01-07T17:38:50.493Z,94.22
2023-01-07T17:41:39.266Z,94.24
2023-01-07T17:44:11.398Z,94.40
2023-01-07T17:46:42.062Z,94.17
2023-01-07T17:49:11.376Z,94.63
2023-01-07T17:51:47.485Z,94.74
2023-01-07T17:54:25.361Z,94.60
2023-01-07T17:56:52.700Z,94.63
2023-01-07T17:59:22.433Z,94.20
2023-01-07T18:01:52.107Z,94.34
2023-01-07T18:04:19.534Z,94.26
2023-01-07T18:06:46.542Z,94.41
2023-01-07T18:09:13.791Z,94.53
2023-01-07T18:12:02.917Z,94.62
2023-01-07T18:14:32.247Z,94.93
2023-01-07T18:16:59.519Z,94.55
2023-01-07T18:19:26.278Z,94.48
2023-01-07T18:21:53.107Z,94.00
2023-01-07T18:24:21.322Z,94.04
2023-01-07T18:26:48.452Z,93.75
2023-01-07T18:29:15.307Z,93.68
2023-01-07T18:31:44.451Z,93.61
2023-01-07T18:34:13.848Z,93.42
2023-01-07T18:36:41.162Z,93.06
2023-01-07T18:39:11.771Z,92.97
2023-01-07T18:41:39.583Z,92.90
2023-01-07T18:44:06.479Z,92.08
2023-01-07T18:46:33.821Z,92.01
2023-01-07T18:49:02.074Z,91.67
2023-01-07T18:51:29.081Z,91.77
2023-01-07T18:54:01.095Z,91.50
2023-01-07T18:56:28.124Z,91.34
2023-01-07T18:58:55.316Z,91.82
2023-01-07T19:01:22.169Z,92.01
2023-01-07T19:03:49.307Z,91.36
2023-01-07T19:06:16.410Z,91.46
2023-01-07T19:08:43.273Z,91.31
2023-01-07T19:11:13.039Z,90.97
2023-01-07T19:13:40.094Z,91.21
2023-01-07T19:16:12.736Z,90.95
2023-01-07T19:18:40.087Z,90.47
2023-01-07T19:21:10.478Z,90.80
2023-01-07T19:23:37.400Z,90.83
2023-01-07T19:26:06.496Z,90.66
2023-01-07T19:28:33.544Z,90.23
2023-01-07T19:31:04.579Z,90.25
2023-01-07T19:33:31.722Z,90.45
2023-01-07T19:36:10.148Z,89.93
2023-01-07T19:38:44.454Z,90.09
2023-01-07T19:41:16.538Z,89.88
2023-01-07T19:43:45.719Z,89.32
2023-01-07T19:46:15.449Z,89.28
2023-01-07T19:48:42.895Z,89.14
2023-01-07T19:51:10.596Z,88.66
2023-01-07T19:53:37.832Z,88.24
2023-01-07T19:56:09.346Z,88.38
2023-01-07T19:58:40.606Z,88.39
2023-01-07T20:01:17.803Z,87.99
2023-01-07T20:03:45.525Z,87.81
2023-01-07T20:06:18.319Z,87.38
2023-01-07T20:08:45.378Z,87.19
2023-01-07T20:11:13.382Z,86.76
2023-01-07T20:13:41.379Z,86.86
2023-01-07T20:16:13.463Z,86.37
2023-01-07T20:18:43.347Z,86.02
2023-01-07T20:21:12.385Z,85.88
2023-01-07T20:23:40.738Z,86.17
2023-01-07T20:26:15.507Z,86.37
2023-01-07T20:28:42.453Z,86.39
2023-01-07T20:31:13.012Z,86.80
2023-01-07T20:33:40.293Z,87.14
2023-01-07T20:36:10.497Z,87.45
2023-01-07T20:38:37.727Z,87.67
2023-01-07T20:41:05.659Z,87.79
2023-01-07T20:43:34.009Z,87.74
2023-01-07T20:46:02.656Z,87.60
2023-01-07T20:48:30.103Z,87.75
2023-01-07T20:50:57.433Z,87.70
2023-01-07T20:53:28.437Z,87.48
2023-01-07T20:55:59.719Z,87.87
2023-01-07T20:58:28.059Z,88.13
2023-01-07T21:00:54.971Z,87.88
2023-01-07T21:03:22.058Z,88.03
2023-01-07T21:05:51.247Z,88.30
2023-01-07T21:08:18.100Z,88.42
2023-01-07T21:10:44.926Z,88.29
2023-01-07T21:13:11.749Z,88.19
2023-01-07T21:15:41.467Z,87.73
2023-01-07T21:18:08.227Z,87.92
2023-01-07T21:20:35.014Z,88.19
2023-01-07T21:23:03.452Z,88.13
2023-01-07T21:25:30.434Z,88.31
2023-01-07T21:27:58.220Z,88.46
2023-01-07T21:30:28.263Z,88.74
2023-01-07T21:32:56.086Z,88.48
2023-01-07T21:35:23.476Z,88.70
2023-01-07T21:37:56.945Z,88.63
2023-01-07T21:40:23.961Z,88.13
2023-01-07T21:42:50.882Z,88.17
2023-01-07T21:45:18.596Z,88.25
2023-01-07T21:47:46.413Z,88.18
2023-01-07T21:50:15.020Z,88.20
2023-01-07T21:52:42.006Z,88.35
2023-01-07T21:55:10.409Z,87.93
2023-01-07T21:57:38.878Z,87.93
2023-01-07T22:00:06.939Z,88.01
2023-01-07T22:02:33.753Z,88.11
2023-01-07T22:05:00.681Z,87.88
2023-01-07T22:07:27.390Z,88.53
2023-01-07T22:09:54.414Z,89.04
2023-01-07T22:12:21.347Z,89.19
2023-01-07T22:14:48.170Z,89.42
2023-01-07T22:17:15.066Z,89.71
2023-01-07T22:19:42.215Z,89.20
2023-01-07T22:22:09.038Z,89.08
2023-01-07T22:24:35.870Z,88.84
2023-01-07T22:27:02.800Z,87.90
2023-01-07T22:29:32.257Z,87.68
2023-01-07T22:31:59.310Z,87.82
2023-01-07T22:34:26.119Z,88.03
2023-01-07T22:37:10.303Z,88.46
2023-01-07T22:39:51.833Z,88.20
2023-01-07T22:42:22.674Z,88.10
2023-01-07T22:44:54.513Z,87.97
2023-01-07T22:47:26.416Z,88.01
2023-01-07T22:49:54.032Z,88.01
2023-01-07T22:52:21.308Z,87.57
2023-01-07T22:54:48.306Z,87.16
2023-01-07T22:57:15.363Z,87.23
2023-01-07T22:59:42.135Z,87.55
2023-01-07T23:02:08.917Z,87.09
2023-01-07T23:04:35.654Z,87.49
2023-01-07T23:07:02.658Z,87.56
2023-01-07T23:09:29.440Z,87.94
2023-01-07T23:11:59.513Z,88.47
2023-01-07T23:14:28.902Z,88.57
2023-01-07T23:16:56.250Z,88.90
2023-01-07T23:19:22.992Z,89.13
2023-01-07T23:21:52.724Z,89.33
2023-01-07T23:24:20.703Z,89.57
2023-01-07T23:26:52.772Z,89.88
2023-01-07T23:29:19.947Z,89.39
2023-01-07T23:31:46.913Z,89.69
2023-01-07T23:34:14.317Z,90.28
2023-01-07T23:36:41.050Z,89.75
2023-01-07T23:39:07.841Z,89.77
2023-01-07T23:41:34.612Z,90.05
2023-01-07T23:44:01.637Z,91.15
2023-01-07T23:46:28.425Z,92.07
2023-01-07T23:48:55.195Z,93.36
2023-01-07T23:51:22.206Z,93.43
2023-01-07T23:53:49.540Z,92.49
2023-01-07T23:56:22.555Z,92.58
2023-01-07T23:58:49.911Z,91.03
